Time;durP1;ratioP1;P1;durP2;ratioP2;P2;SDS_P1;SDS_P2;PMS_P1;PMS_P2;Temp;Humidity;BMP_temperature;BMP_pressure;BME280_temperature;BME280_humidity;BME280_pressure;Samples;Min_cycle;Max_cycle;Signal;HPM_P1;HPM_P2
2022/03/28 00:01:33;;;;;;;23.40;3.88;;;5.50;99.90;;;;;;5028945;28;20041;-80
2022/03/28 00:04:00;;;;;;;24.08;4.25;;;5.60;99.90;;;;;;5030484;28;20043;-80
2022/03/28 00:06:26;;;;;;;39.00;6.05;;;5.60;99.90;;;;;;5030086;28;20115;-80
2022/03/28 00:08:52;;;;;;;39.65;5.60;;;5.60;99.90;;;;;;5029916;28;20041;-80
2022/03/28 00:11:18;;;;;;;26.67;5.20;;;5.60;99.90;;;;;;5029820;28;20121;-80
2022/03/28 00:13:45;;;;;;;24.92;4.88;;;5.60;99.90;;;;;;5033887;28;20044;-80
2022/03/28 00:16:11;;;;;;;14.52;4.82;;;5.60;99.90;;;;;;5028258;28;20108;-79
2022/03/28 00:18:37;;;;;;;25.23;5.28;;;5.60;99.90;;;;;;5029126;28;20041;-80
2022/03/28 00:21:03;;;;;;;25.67;4.53;;;5.50;99.90;;;;;;5028405;28;20033;-79
2022/03/28 00:23:31;;;;;;;23.50;4.75;;;5.60;99.90;;;;;;5013522;28;20045;-80
2022/03/28 00:25:57;;;;;;;28.52;4.70;;;5.60;99.90;;;;;;5026993;28;20099;-80
2022/03/28 00:28:23;;;;;;;24.20;5.03;;;5.60;99.90;;;;;;5033023;28;20033;-80
2022/03/28 00:30:49;;;;;;;52.97;6.53;;;5.60;99.90;;;;;;5027260;28;20137;-80
2022/03/28 00:33:15;;;;;;;26.77;5.72;;;5.60;99.90;;;;;;5031492;28;20041;-80
2022/03/28 00:35:41;;;;;;;26.27;5.47;;;5.60;99.90;;;;;;5027485;28;20037;-80
2022/03/28 00:38:09;;;;;;;37.83;5.90;;;5.60;99.90;;;;;;5031778;28;20137;-80
2022/03/28 00:40:35;;;;;;;33.40;6.75;;;5.60;99.90;;;;;;5029623;28;20042;-80
2022/03/28 00:43:03;;;;;;;36.95;6.95;;;5.50;99.90;;;;;;5033154;28;20037;-79
2022/03/28 00:45:34;;;;;;;28.25;6.05;;;5.50;99.90;;;;;;5013845;28;20033;-80
2022/03/28 00:48:00;;;;;;;28.98;6.75;;;5.50;99.90;;;;;;5031930;28;20033;-79
2022/03/28 00:50:28;;;;;;;25.92;6.40;;;5.50;99.90;;;;;;5029447;28;20045;-79
2022/03/28 00:52:54;;;;;;;27.92;6.85;;;5.50;99.90;;;;;;5026686;28;20045;-80
2022/03/28 00:55:21;;;;;;;37.45;7.78;;;5.50;99.90;;;;;;5031631;28;20045;-80
2022/03/28 00:57:47;;;;;;;31.98;7.03;;;5.50;99.90;;;;;;5029107;28;20523;-80
2022/03/28 01:00:14;;;;;;;48.72;8.32;;;5.50;99.90;;;;;;5030851;28;20041;-79
2022/03/28 01:02:40;;;;;;;34.83;8.65;;;5.50;99.90;;;;;;5026424;28;20569;-80
2022/03/28 01:05:06;;;;;;;43.15;8.90;;;5.50;99.90;;;;;;5029794;28;20125;-79
2022/03/28 01:07:32;;;;;;;47.38;9.20;;;5.50;99.90;;;;;;5030010;28;20033;-79
2022/03/28 01:10:01;;;;;;;20.92;7.93;;;5.50;99.90;;;;;;5032962;28;20037;-79
2022/03/28 01:12:29;;;;;;;53.10;9.32;;;5.50;99.90;;;;;;5029924;28;20073;-79
2022/03/28 01:14:55;;;;;;;49.75;9.32;;;5.50;99.90;;;;;;5032452;28;20087;-79
2022/03/28 01:20:06;;;;;;;72.45;11.80;;;5.50;99.90;;;;;;5028302;28;20072;-79
2022/03/28 01:22:32;;;;;;;35.72;11.02;;;5.60;99.90;;;;;;5026323;28;20037;-79
2022/03/28 01:25:03;;;;;;;48.65;12.65;;;5.60;99.90;;;;;;5028785;28;20143;-79
2022/03/28 01:27:29;;;;;;;38.25;12.48;;;5.60;99.90;;;;;;5027931;28;20045;-80
2022/03/28 01:29:55;;;;;;;42.25;11.45;;;5.70;99.90;;;;;;5028600;28;20506;-79
2022/03/28 01:32:21;;;;;;;36.35;13.52;;;5.70;99.90;;;;;;5028298;28;20033;-80
2022/03/28 01:34:46;;;;;;;24.38;12.05;;;5.60;99.90;;;;;;5028979;28;20059;-80
2022/03/28 01:37:12;;;;;;;30.10;11.10;;;5.60;99.90;;;;;;5031498;28;20061;-79
2022/03/28 01:39:38;;;;;;;29.50;11.52;;;5.60;99.90;;;;;;5030018;28;20053;-80
2022/03/28 01:42:04;;;;;;;59.17;11.93;;;5.50;99.90;;;;;;5030872;28;20052;-79
2022/03/28 01:44:30;;;;;;;35.22;11.52;;;5.50;99.90;;;;;;5031371;28;20112;-80
2022/03/28 01:46:55;;;;;;;27.63;12.00;;;5.50;99.90;;;;;;5024771;28;20120;-79
2022/03/28 01:49:21;;;;;;;28.25;11.90;;;5.50;99.90;;;;;;5027861;28;20070;-80
2022/03/28 01:51:48;;;;;;;41.03;12.63;;;5.50;99.90;;;;;;5030214;28;20033;-79
2022/03/28 01:54:15;;;;;;;39.03;13.43;;;5.50;99.90;;;;;;5030602;28;20235;-79
2022/03/28 01:56:42;;;;;;;37.33;12.38;;;5.50;99.90;;;;;;5032027;28;20539;-79
2022/03/28 01:59:09;;;;;;;40.95;12.68;;;5.60;99.90;;;;;;5035592;28;20080;-79
2022/03/28 02:01:35;;;;;;;123.93;17.05;;;5.50;99.90;;;;;;5031211;28;20033;-79
2022/03/28 02:04:01;;;;;;;36.20;12.68;;;5.50;99.90;;;;;;5033210;28;20091;-79
2022/03/28 02:06:28;;;;;;;45.42;14.30;;;5.50;99.90;;;;;;5033327;28;20083;-79
2022/03/28 02:08:54;;;;;;;35.80;13.25;;;5.50;99.90;;;;;;5031322;28;20483;-80
2022/03/28 02:11:20;;;;;;;48.40;13.88;;;5.50;99.90;;;;;;5036907;28;20332;-79
2022/03/28 02:13:46;;;;;;;58.20;13.65;;;5.50;99.90;;;;;;5034005;28;20030;-79
2022/03/28 02:16:12;;;;;;;47.70;12.77;;;5.50;99.90;;;;;;5033784;28;20112;-79
2022/03/28 02:18:38;;;;;;;34.10;12.43;;;5.50;99.90;;;;;;5030074;28;20108;-80
2022/03/28 02:21:05;;;;;;;53.80;13.98;;;5.50;99.90;;;;;;5032782;28;20554;-79
2022/03/28 02:23:30;;;;;;;79.47;15.00;;;5.50;99.90;;;;;;5031446;28;20363;-79
2022/03/28 02:25:56;;;;;;;53.63;14.45;;;5.50;99.90;;;;;;5015670;28;20044;-80
2022/03/28 02:28:23;;;;;;;74.50;15.23;;;5.50;99.90;;;;;;5031711;28;20037;-80
2022/03/28 02:30:49;;;;;;;81.95;15.60;;;5.50;99.90;;;;;;5031370;28;20116;-79
2022/03/28 02:33:15;;;;;;;81.80;15.45;;;5.50;99.90;;;;;;5026012;28;20045;-79
2022/03/28 02:35:41;;;;;;;67.30;15.23;;;5.50;99.90;;;;;;5034722;28;20120;-79
2022/03/28 02:38:08;;;;;;;72.30;15.45;;;5.50;99.90;;;;;;5031104;28;20057;-80
2022/03/28 02:40:35;;;;;;;75.38;17.65;;;5.50;99.90;;;;;;5033040;28;20051;-80
2022/03/28 02:43:02;;;;;;;78.90;17.10;;;5.50;99.90;;;;;;5034001;28;20041;-79
2022/03/28 02:45:30;;;;;;;62.60;15.20;;;5.50;99.90;;;;;;5029977;28;20041;-79
2022/03/28 02:47:56;;;;;;;83.70;17.10;;;5.50;99.90;;;;;;5027600;28;20112;-79
2022/03/28 02:50:22;;;;;;;101.97;15.75;;;5.50;99.90;;;;;;5032921;28;20168;-79
2022/03/28 02:52:48;;;;;;;69.88;14.73;;;5.50;99.90;;;;;;5023653;28;20029;-79
2022/03/28 02:55:15;;;;;;;88.43;16.70;;;5.50;99.90;;;;;;5027302;28;20036;-79
2022/03/28 02:57:41;;;;;;;151.40;16.77;;;5.50;99.90;;;;;;5030390;28;20037;-79
2022/03/28 03:00:08;;;;;;;128.45;17.05;;;5.50;99.90;;;;;;5033969;28;20154;-79
2022/03/28 03:02:35;;;;;;;108.38;15.85;;;5.50;99.90;;;;;;5028111;28;20033;-79
2022/03/28 03:05:01;;;;;;;78.85;14.70;;;5.40;99.90;;;;;;5032225;28;20045;-79
2022/03/28 03:07:26;;;;;;;134.70;18.58;;;5.40;99.90;;;;;;5029066;28;20475;-79
2022/03/28 03:09:53;;;;;;;103.85;15.05;;;5.40;99.90;;;;;;5033888;28;20041;-79
2022/03/28 03:12:19;;;;;;;89.25;16.60;;;5.40;99.90;;;;;;5030888;28;20033;-79
2022/03/28 03:14:45;;;;;;;137.88;16.92;;;5.40;99.90;;;;;;5030152;28;20033;-79
2022/03/28 03:17:10;;;;;;;159.07;17.05;;;5.40;99.90;;;;;;5029971;28;20041;-79
2022/03/28 03:19:39;;;;;;;70.90;13.90;;;5.40;99.90;;;;;;5031123;28;20507;-79
2022/03/28 03:22:06;;;;;;;62.30;13.40;;;5.40;99.90;;;;;;5029127;28;20053;-79
2022/03/28 03:24:32;;;;;;;48.58;13.70;;;5.30;99.90;;;;;;5031417;28;20124;-78
2022/03/28 03:26:58;;;;;;;57.03;15.13;;;5.40;99.90;;;;;;5031012;28;20105;-79
2022/03/28 03:29:24;;;;;;;93.45;14.52;;;5.30;99.90;;;;;;5033796;28;20099;-79
2022/03/28 03:31:51;;;;;;;131.80;17.60;;;5.30;99.90;;;;;;5035264;28;20041;-79
2022/03/28 03:34:18;;;;;;;91.78;15.50;;;5.30;99.90;;;;;;5028939;28;20048;-79
2022/03/28 03:36:43;;;;;;;82.88;15.63;;;5.30;99.90;;;;;;5032006;28;20025;-79
2022/03/28 03:39:09;;;;;;;161.05;23.08;;;5.30;99.90;;;;;;5029503;28;20577;-79
2022/03/28 03:41:35;;;;;;;120.80;18.48;;;5.30;99.90;;;;;;5031785;28;20083;-79
2022/03/28 03:44:00;;;;;;;106.70;19.65;;;5.40;99.90;;;;;;5030892;28;20715;-79
2022/03/28 03:46:26;;;;;;;68.78;15.05;;;5.40;99.90;;;;;;5031076;28;20590;-79
2022/03/28 03:48:52;;;;;;;102.40;18.77;;;5.40;99.90;;;;;;5028429;28;20053;-79
2022/03/28 03:51:18;;;;;;;59.75;14.95;;;5.50;99.90;;;;;;5033506;28;20080;-79
2022/03/28 03:53:43;;;;;;;46.83;14.23;;;5.40;99.90;;;;;;5032034;28;20057;-79
2022/03/28 03:56:09;;;;;;;80.85;14.13;;;5.40;99.90;;;;;;5032033;28;20561;-79
2022/03/28 03:58:35;;;;;;;55.58;14.52;;;5.40;99.90;;;;;;5029709;28;20030;-79
2022/03/28 04:01:01;;;;;;;58.85;14.43;;;5.40;99.90;;;;;;5032496;28;20039;-79
2022/03/28 04:03:26;;;;;;;85.78;14.55;;;5.40;99.90;;;;;;5029795;28;20052;-79
2022/03/28 04:05:52;;;;;;;47.75;11.43;;;5.30;99.90;;;;;;5029999;28;20121;-79
2022/03/28 04:08:18;;;;;;;53.80;11.93;;;5.30;99.90;;;;;;5029486;28;20041;-79
2022/03/28 04:10:44;;;;;;;51.03;11.60;;;5.30;99.90;;;;;;5031586;28;20037;-79
2022/03/28 04:13:10;;;;;;;90.55;15.32;;;5.30;99.90;;;;;;5028557;28;20045;-79
2022/03/28 04:15:37;;;;;;;82.20;13.40;;;5.30;99.90;;;;;;5030306;28;21259;-79
2022/03/28 04:18:03;;;;;;;79.78;14.40;;;5.20;99.90;;;;;;5029348;28;20044;-79
2022/03/28 04:20:29;;;;;;;57.42;13.73;;;5.30;99.90;;;;;;5028359;28;20030;-79
2022/03/28 04:22:55;;;;;;;67.60;12.27;;;5.30;99.90;;;;;;5029828;28;20037;-78
2022/03/28 04:25:21;;;;;;;53.20;11.32;;;5.20;99.90;;;;;;5029249;28;20521;-79
2022/03/28 04:27:47;;;;;;;62.38;12.30;;;5.20;99.90;;;;;;5035746;28;20033;-79
2022/03/28 04:30:14;;;;;;;99.72;15.50;;;5.20;99.90;;;;;;5033050;28;20172;-79
2022/03/28 04:32:40;;;;;;;61.30;12.98;;;5.20;99.90;;;;;;5029578;28;20112;-78
2022/03/28 04:35:07;;;;;;;63.83;13.43;;;5.30;99.90;;;;;;5029227;28;20045;-79
2022/03/28 04:37:35;;;;;;;58.67;12.52;;;5.20;99.90;;;;;;5028702;28;20188;-78
2022/03/28 04:40:02;;;;;;;85.45;13.63;;;5.20;99.90;;;;;;5036896;28;20052;-78
2022/03/28 04:42:28;;;;;;;61.78;13.45;;;5.20;99.90;;;;;;5030404;28;20041;-79
2022/03/28 04:44:54;;;;;;;30.48;11.60;;;5.10;99.90;;;;;;5031178;28;20536;-79
2022/03/28 04:47:20;;;;;;;89.70;16.70;;;5.10;99.90;;;;;;5030142;28;20044;-79
2022/03/28 04:49:46;;;;;;;145.48;19.63;;;5.10;99.90;;;;;;5028936;28;20115;-78
2022/03/28 04:52:11;;;;;;;63.13;14.15;;;5.10;99.90;;;;;;5029903;28;20519;-78
2022/03/28 04:54:37;;;;;;;91.22;15.73;;;5.10;99.90;;;;;;5028799;28;20041;-78
2022/03/28 04:57:04;;;;;;;67.70;16.65;;;5.20;99.90;;;;;;5031980;28;20041;-79
2022/03/28 04:59:30;;;;;;;54.47;14.52;;;5.10;99.90;;;;;;5029994;28;20069;-79
2022/03/28 05:01:56;;;;;;;82.10;16.33;;;5.20;99.90;;;;;;5027874;28;20402;-78
2022/03/28 05:04:22;;;;;;;43.00;14.55;;;5.20;99.90;;;;;;5011866;28;20061;-79
2022/03/28 05:06:48;;;;;;;38.58;15.15;;;5.20;99.90;;;;;;5030392;28;20477;-79
2022/03/28 05:09:13;;;;;;;131.63;21.05;;;5.20;99.90;;;;;;5026493;28;20129;-78
2022/03/28 05:11:39;;;;;;;72.10;16.30;;;5.20;99.90;;;;;;5029649;28;20490;-78
2022/03/28 05:14:05;;;;;;;62.42;17.38;;;5.20;99.90;;;;;;5028706;28;20095;-78
2022/03/28 05:16:31;;;;;;;64.25;17.35;;;5.20;99.90;;;;;;5031822;28;20048;-79
2022/03/28 05:18:57;;;;;;;33.25;15.27;;;5.20;99.90;;;;;;5026497;28;20562;-78
2022/03/28 05:21:23;;;;;;;61.33;20.23;;;5.20;99.90;;;;;;5031857;28;20030;-78
2022/03/28 05:23:48;;;;;;;39.58;17.30;;;5.20;99.90;;;;;;5030257;28;20112;-78
2022/03/28 05:26:14;;;;;;;37.65;16.85;;;5.20;99.90;;;;;;5044097;28;20141;-79
2022/03/28 05:28:40;;;;;;;37.00;16.42;;;5.20;99.90;;;;;;5030457;28;20525;-79
2022/03/28 05:31:06;;;;;;;28.60;15.25;;;5.20;99.90;;;;;;5028849;28;20080;-79
2022/03/28 05:33:31;;;;;;;29.45;14.73;;;5.20;99.90;;;;;;5035458;28;20117;-80
2022/03/28 05:35:58;;;;;;;35.55;14.10;;;5.10;99.90;;;;;;5033957;28;20108;-79
2022/03/28 05:38:24;;;;;;;34.53;13.85;;;5.10;99.90;;;;;;5033008;28;20144;-78
2022/03/28 05:40:50;;;;;;;24.25;12.77;;;5.00;99.90;;;;;;5032787;28;20034;-79
2022/03/28 05:43:16;;;;;;;23.23;11.98;;;5.00;99.90;;;;;;5035619;28;20045;-79
2022/03/28 05:45:42;;;;;;;23.17;12.68;;;5.00;99.90;;;;;;5033977;28;20560;-79
2022/03/28 05:48:08;;;;;;;24.33;13.60;;;4.90;99.90;;;;;;5037017;28;20037;-78
2022/03/28 05:50:34;;;;;;;23.70;12.80;;;4.90;99.90;;;;;;5034668;28;20048;-78
2022/03/28 05:53:00;;;;;;;23.77;14.20;;;4.90;99.90;;;;;;5032369;28;20042;-79
2022/03/28 05:55:26;;;;;;;28.00;14.18;;;4.90;99.90;;;;;;5031601;28;20033;-79
2022/03/28 05:57:52;;;;;;;29.58;15.57;;;4.90;99.90;;;;;;5031872;28;20048;-79
2022/03/28 06:00:18;;;;;;;30.40;15.18;;;5.20;99.90;;;;;;5032585;28;20044;-79
2022/03/28 06:02:44;;;;;;;31.63;15.27;;;5.00;99.90;;;;;;5031396;28;20037;-79
2022/03/28 06:05:12;;;;;;;28.90;14.60;;;5.00;99.90;;;;;;5031894;28;20119;-79
2022/03/28 06:07:37;;;;;;;27.42;15.50;;;5.00;99.90;;;;;;5029408;28;20037;-79
2022/03/28 06:10:04;;;;;;;35.20;15.30;;;5.10;99.90;;;;;;5011574;28;20095;-79
2022/03/28 06:12:29;;;;;;;27.77;14.90;;;5.10;99.90;;;;;;5036431;28;20033;-79
2022/03/28 06:14:55;;;;;;;24.35;12.75;;;5.10;99.90;;;;;;5027192;28;20457;-80
2022/03/28 06:17:25;;;;;;;27.88;13.43;;;5.10;99.90;;;;;;5028256;28;20037;-79
2022/03/28 06:19:51;;;;;;;24.17;13.13;;;5.00;99.90;;;;;;5031170;28;20037;-79
2022/03/28 06:22:17;;;;;;;24.60;13.90;;;5.10;99.90;;;;;;5032650;28;20033;-79
2022/03/28 06:24:44;;;;;;;25.98;14.30;;;5.10;99.90;;;;;;5032630;28;20194;-79
2022/03/28 06:27:10;;;;;;;29.35;13.40;;;5.10;99.90;;;;;;5031870;28;20033;-79
2022/03/28 06:29:35;;;;;;;29.00;13.90;;;5.10;99.90;;;;;;5032130;28;20033;-79
2022/03/28 06:32:01;;;;;;;31.35;13.73;;;5.10;99.90;;;;;;5033789;28;20040;-79
2022/03/28 06:34:27;;;;;;;26.60;13.60;;;5.20;99.90;;;;;;5032312;28;20094;-79
2022/03/28 06:36:53;;;;;;;28.63;13.90;;;5.20;99.90;;;;;;5031323;28;20033;-79
2022/03/28 06:39:19;;;;;;;35.60;14.75;;;5.20;99.90;;;;;;5031203;28;20097;-79
2022/03/28 06:41:45;;;;;;;26.75;14.25;;;5.20;99.90;;;;;;5032647;28;20138;-79
2022/03/28 06:44:11;;;;;;;29.23;13.50;;;5.20;99.90;;;;;;5030273;28;20446;-79
2022/03/28 06:46:43;;;;;;;31.15;14.27;;;5.20;99.90;;;;;;5032921;28;20064;-79
2022/03/28 06:49:09;;;;;;;30.25;14.68;;;5.20;99.90;;;;;;5025018;28;20474;-78
2022/03/28 06:51:35;;;;;;;31.70;14.32;;;5.20;99.90;;;;;;5021309;28;20582;-78
2022/03/28 06:54:05;;;;;;;27.80;13.27;;;5.20;99.90;;;;;;5025388;28;20045;-78
2022/03/28 06:56:31;;;;;;;25.27;13.32;;;5.20;99.90;;;;;;5025031;28;20503;-79
2022/03/28 06:58:57;;;;;;;20.70;11.32;;;5.20;99.90;;;;;;5026043;28;20387;-78
2022/03/28 07:01:22;;;;;;;23.48;11.70;;;5.30;99.90;;;;;;5024568;28;20143;-79
2022/03/28 07:03:48;;;;;;;22.60;12.10;;;5.20;99.90;;;;;;5022733;28;20111;-78
2022/03/28 07:06:14;;;;;;;19.90;10.77;;;5.20;99.90;;;;;;5022803;28;20044;-79
2022/03/28 07:08:40;;;;;;;24.95;12.02;;;5.20;99.90;;;;;;5023330;28;20274;-78
2022/03/28 07:11:06;;;;;;;19.35;10.60;;;5.20;99.90;;;;;;5023227;28;20053;-79
2022/03/28 07:13:31;;;;;;;26.75;11.70;;;5.20;99.90;;;;;;5023940;28;20120;-78
2022/03/28 07:15:57;;;;;;;24.65;10.82;;;5.50;99.90;;;;;;5023058;28;20240;-79
2022/03/28 07:18:23;;;;;;;21.85;10.88;;;5.40;99.90;;;;;;5020289;28;20041;-78
2022/03/28 07:20:50;;;;;;;23.48;9.55;;;5.40;99.90;;;;;;5023195;28;20045;-79
2022/03/28 07:23:17;;;;;;;14.73;7.65;;;5.40;99.90;;;;;;5021921;28;20052;-79
2022/03/28 07:25:44;;;;;;;18.13;9.38;;;5.40;99.90;;;;;;5005746;28;20518;-79
2022/03/28 07:28:12;;;;;;;22.10;9.52;;;5.40;99.90;;;;;;5022593;28;20530;-79
2022/03/28 07:30:40;;;;;;;17.25;8.63;;;5.40;99.90;;;;;;5023450;28;20053;-79
2022/03/28 07:33:06;;;;;;;20.38;8.98;;;5.50;99.90;;;;;;5021218;28;20415;-79
2022/03/28 07:35:37;;;;;;;19.15;8.20;;;5.50;99.90;;;;;;5024318;28;20041;-79
2022/03/28 07:38:08;;;;;;;16.27;8.82;;;5.40;99.90;;;;;;5019925;28;20049;-78
2022/03/28 07:40:39;;;;;;;15.70;7.78;;;5.50;99.90;;;;;;5022131;28;20056;-79
2022/03/28 07:43:05;;;;;;;13.57;7.10;;;5.50;99.90;;;;;;5052268;28;20050;-79
2022/03/28 07:45:31;;;;;;;14.43;8.13;;;5.50;99.90;;;;;;5022443;28;20041;-78
2022/03/28 07:47:57;;;;;;;14.13;6.72;;;5.50;99.90;;;;;;5021858;28;20244;-79
2022/03/28 07:50:23;;;;;;;11.73;5.88;;;5.50;99.90;;;;;;5021329;28;20052;-79
2022/03/28 07:52:50;;;;;;;13.75;6.38;;;5.60;99.90;;;;;;5019760;28;20565;-79
2022/03/28 07:55:17;;;;;;;15.07;7.20;;;5.60;99.90;;;;;;5047303;28;20048;-79
2022/03/28 07:57:44;;;;;;;16.77;7.30;;;5.60;99.90;;;;;;5021595;28;20052;-79
2022/03/28 08:00:13;;;;;;;13.65;7.20;;;5.70;99.90;;;;;;5021997;28;20112;-79
2022/03/28 08:02:40;;;;;;;13.68;6.28;;;5.80;99.90;;;;;;5021707;28;20045;-79
2022/03/28 08:05:07;;;;;;;15.35;6.85;;;5.80;99.90;;;;;;5022817;28;20132;-79
2022/03/28 08:07:34;;;;;;;10.02;5.82;;;5.80;99.90;;;;;;5021807;28;20030;-79
2022/03/28 08:10:00;;;;;;;9.00;4.93;;;5.80;99.90;;;;;;5022327;28;20046;-79
2022/03/28 08:12:26;;;;;;;10.48;5.97;;;5.90;99.90;;;;;;5021645;28;20415;-79
2022/03/28 08:14:52;;;;;;;8.23;4.93;;;5.90;99.90;;;;;;5021852;28;20061;-79
2022/03/28 08:17:19;;;;;;;8.20;5.15;;;5.90;99.90;;;;;;5026527;28;20057;-80
2022/03/28 08:19:46;;;;;;;10.00;5.68;;;5.90;99.90;;;;;;5030134;28;20132;-79
2022/03/28 08:22:12;;;;;;;10.63;6.20;;;6.00;99.90;;;;;;5013129;28;20081;-79
2022/03/28 08:24:38;;;;;;;10.55;5.57;;;6.00;99.90;;;;;;5030609;28;20414;-79
2022/03/28 08:27:03;;;;;;;9.68;4.90;;;6.00;99.90;;;;;;5030549;28;20043;-79
2022/03/28 08:29:32;;;;;;;10.50;4.75;;;6.10;99.90;;;;;;5030193;28;20115;-79
2022/03/28 08:31:59;;;;;;;9.90;5.03;;;6.10;99.90;;;;;;5028781;28;20556;-79
2022/03/28 08:34:25;;;;;;;12.52;5.65;;;6.20;99.90;;;;;;5029892;28;20556;-79
2022/03/28 08:36:51;;;;;;;8.95;4.85;;;6.30;99.90;;;;;;5030706;28;20063;-80
2022/03/28 08:39:16;;;;;;;7.85;4.78;;;6.30;99.90;;;;;;5028728;28;20057;-79
2022/03/28 08:41:44;;;;;;;8.25;4.50;;;6.00;99.90;;;;;;5029884;28;20113;-80
2022/03/28 08:44:09;;;;;;;9.23;5.15;;;6.40;99.90;;;;;;5030152;28;20049;-79
2022/03/28 08:46:39;;;;;;;7.07;4.50;;;6.30;99.90;;;;;;5029156;28;20033;-80
2022/03/28 08:49:05;;;;;;;10.20;5.22;;;6.40;99.90;;;;;;5029659;28;20495;-80
2022/03/28 08:51:32;;;;;;;8.90;5.20;;;6.50;99.90;;;;;;5030330;28;20044;-80
2022/03/28 08:53:58;;;;;;;9.55;5.03;;;6.50;99.90;;;;;;5026451;28;20139;-80
2022/03/28 08:56:23;;;;;;;7.68;4.50;;;6.40;99.90;;;;;;5029117;28;20458;-78
2022/03/28 08:58:49;;;;;;;7.78;4.72;;;6.40;99.90;;;;;;5029166;28;20151;-78
2022/03/28 09:01:16;;;;;;;7.13;5.00;;;6.50;99.90;;;;;;5028036;28;20068;-78
2022/03/28 09:03:53;;;;;;;8.52;5.00;;;6.60;99.90;;;;;;5027638;28;20049;-78
2022/03/28 09:06:36;;;;;;;7.75;4.88;;;6.70;99.90;;;;;;5029421;28;20399;-78
2022/03/28 09:09:19;;;;;;;8.30;4.70;;;6.80;99.90;;;;;;5029088;28;20045;-78
2022/03/28 09:11:54;;;;;;;7.22;4.35;;;6.90;99.90;;;;;;5029720;28;20037;-78
2022/03/28 09:14:30;;;;;;;9.18;4.93;;;6.80;99.90;;;;;;5030292;28;20087;-78
2022/03/28 09:17:05;;;;;;;8.25;5.18;;;6.80;99.90;;;;;;5029912;28;20104;-78
2022/03/28 09:19:46;;;;;;;6.47;4.70;;;6.90;99.90;;;;;;5029983;28;20041;-78
2022/03/28 09:22:23;;;;;;;8.52;5.22;;;7.00;99.90;;;;;;5029655;28;20042;-79
2022/03/28 09:24:50;;;;;;;10.00;4.35;;;7.10;99.90;;;;;;5032786;28;20048;-78
2022/03/28 09:27:20;;;;;;;10.52;4.72;;;7.10;99.90;;;;;;5053636;28;20053;-78
2022/03/28 09:29:53;;;;;;;11.18;5.28;;;7.20;99.90;;;;;;5052048;28;20051;-78
2022/03/28 09:32:21;;;;;;;8.60;4.78;;;7.30;99.90;;;;;;5051813;28;20073;-79
2022/03/28 09:35:02;;;;;;;8.77;5.00;;;7.30;99.90;;;;;;5027792;28;20049;-78
2022/03/28 09:37:28;;;;;;;7.28;4.85;;;7.30;99.90;;;;;;5025533;28;20061;-78
2022/03/28 09:39:54;;;;;;;8.63;4.78;;;7.30;99.90;;;;;;5027126;28;20064;-78
2022/03/28 09:42:20;;;;;;;10.23;4.70;;;7.40;99.90;;;;;;5061772;28;20041;-79
2022/03/28 09:44:51;;;;;;;10.30;5.35;;;7.30;99.90;;;;;;5029885;28;20040;-78
2022/03/28 09:47:24;;;;;;;7.97;4.82;;;7.30;99.90;;;;;;5030145;28;20107;-79
2022/03/28 09:49:57;;;;;;;8.90;5.22;;;7.40;99.90;;;;;;5004921;28;20495;-78
2022/03/28 09:52:25;;;;;;;7.50;5.03;;;7.40;99.90;;;;;;5024440;28;20173;-79
2022/03/28 09:55:10;;;;;;;7.95;5.07;;;7.50;99.90;;;;;;5029622;28;20037;-78
2022/03/28 09:57:37;;;;;;;6.85;4.57;;;7.60;99.90;;;;;;5029345;28;20486;-78
2022/03/28 10:00:12;;;;;;;8.05;4.90;;;7.70;99.90;;;;;;5029852;28;20465;-78
2022/03/28 10:02:39;;;;;;;8.27;4.78;;;7.70;99.90;;;;;;5028382;28;20498;-78
2022/03/28 10:05:05;;;;;;;7.43;4.63;;;7.80;99.90;;;;;;5049313;28;20045;-79
2022/03/28 10:07:32;;;;;;;8.68;5.72;;;7.90;99.90;;;;;;5029903;28;20049;-78
2022/03/28 10:09:59;;;;;;;7.28;5.07;;;8.00;99.90;;;;;;5023917;28;20038;-78
2022/03/28 10:12:25;;;;;;;8.40;4.88;;;8.10;99.90;;;;;;4992627;28;20050;-79
2022/03/28 10:14:57;;;;;;;9.70;4.72;;;8.10;99.90;;;;;;5025557;28;20037;-78
2022/03/28 10:17:25;;;;;;;7.33;4.93;;;8.20;99.90;;;;;;5030488;28;20494;-79
2022/03/28 10:19:51;;;;;;;7.82;5.00;;;8.30;99.90;;;;;;5032743;28;20342;-78
2022/03/28 10:22:26;;;;;;;7.82;5.43;;;8.40;99.90;;;;;;5033557;28;20041;-78
2022/03/28 10:24:53;;;;;;;7.13;4.63;;;8.40;99.90;;;;;;5033308;28;20055;-78
2022/03/28 10:27:19;;;;;;;7.20;4.97;;;8.50;99.90;;;;;;5032662;28;20495;-79
2022/03/28 10:29:45;;;;;;;10.18;5.30;;;8.50;99.90;;;;;;5032749;28;20037;-77
2022/03/28 10:32:17;;;;;;;7.05;4.68;;;8.60;99.90;;;;;;5032627;28;20052;-79
2022/03/28 10:35:01;;;;;;;7.07;4.60;;;8.70;99.90;;;;;;5020009;28;20033;-78
2022/03/28 10:37:36;;;;;;;7.90;4.88;;;8.70;99.90;;;;;;5031845;28;20564;-79
2022/03/28 10:40:21;;;;;;;9.98;5.32;;;8.70;99.90;;;;;;5032421;28;20057;-79
2022/03/28 10:43:09;;;;;;;10.68;5.93;;;8.70;99.90;;;;;;5032345;28;20046;-79
2022/03/28 10:45:44;;;;;;;9.18;5.13;;;8.70;99.90;;;;;;5030938;28;20582;-79
2022/03/28 10:48:11;;;;;;;8.30;5.13;;;8.80;99.90;;;;;;5032730;28;20029;-78
2022/03/28 10:50:51;;;;;;;9.20;5.70;;;8.70;99.90;;;;;;5014951;28;20487;-78
2022/03/28 10:53:37;;;;;;;8.32;5.60;;;8.70;99.90;;;;;;5019829;28;20044;-79
2022/03/28 10:56:29;;;;;;;8.70;5.25;;;8.60;99.90;;;;;;5032426;28;20076;-78
2022/03/28 10:59:19;;;;;;;8.60;5.50;;;8.60;99.90;;;;;;5032711;28;20041;-78
2022/03/28 11:01:49;;;;;;;7.65;4.90;;;8.70;99.90;;;;;;5018935;28;20137;-78
2022/03/28 11:04:22;;;;;;;7.05;5.03;;;8.50;99.90;;;;;;5030748;28;20072;-79
2022/03/28 11:06:52;;;;;;;8.52;5.22;;;8.70;99.90;;;;;;5031221;28;20080;-79
2022/03/28 11:09:34;;;;;;;9.13;5.50;;;8.70;99.90;;;;;;5031828;28;20470;-79
2022/03/28 11:12:04;;;;;;;8.65;5.10;;;8.70;99.90;;;;;;5019968;28;20040;-79
2022/03/28 11:14:43;;;;;;;8.07;5.60;;;8.80;99.90;;;;;;5031626;28;20092;-79
2022/03/28 11:17:20;;;;;;;7.90;5.57;;;9.00;99.90;;;;;;5032268;28;20037;-79
2022/03/28 11:19:53;;;;;;;9.07;5.68;;;9.10;99.90;;;;;;5031795;28;20049;-79
2022/03/28 11:22:19;;;;;;;;;;;9.30;99.90;;;;;;5032458;28;20116;-78
2022/03/28 11:24:54;;;;;;;8.48;5.70;;;9.40;99.90;;;;;;5031568;28;20032;-79
2022/03/28 11:27:22;;;;;;;9.07;5.82;;;9.70;99.90;;;;;;5030787;28;20477;-78
2022/03/28 11:29:48;;;;;;;8.20;5.75;;;9.90;99.90;;;;;;5030454;28;20041;-78
2022/03/28 11:32:19;;;;;;;8.60;5.88;;;9.90;99.90;;;;;;5030106;28;20045;-78
2022/03/28 11:34:55;;;;;;;8.20;6.05;;;10.00;99.90;;;;;;5031793;28;20048;-78
2022/03/28 11:37:26;;;;;;;8.10;6.03;;;10.20;99.90;;;;;;5031445;28;20132;-79
2022/03/28 11:39:55;;;;;;;8.25;6.47;;;10.60;99.90;;;;;;5029790;28;20095;-79
2022/03/28 11:42:30;;;;;;;8.57;5.63;;;10.90;99.90;;;;;;5031322;28;20111;-78
2022/03/28 11:45:02;;;;;;;8.13;6.13;;;11.40;99.90;;;;;;5031796;28;20029;-77
2022/03/28 11:47:28;;;;;;;;;;;11.60;99.90;;;;;;5018826;28;20073;-77
2022/03/28 11:49:59;;;;;;;7.72;5.55;;;11.70;99.90;;;;;;5029313;28;19992;-77
2022/03/28 11:52:28;;;;;;;8.40;5.43;;;11.90;99.90;;;;;;5031100;28;20108;-77
2022/03/28 11:54:55;;;;;;;9.05;6.55;;;12.10;99.90;;;;;;5029251;28;20418;-77
2022/03/28 12:00:18;;;;;;;7.95;6.35;;;12.00;99.90;;;;;;5061766;28;20529;-77
2022/03/28 12:02:55;;;;;;;9.13;6.00;;;12.10;99.90;;;;;;5029121;28;20041;-77
2022/03/28 12:05:29;;;;;;;8.55;5.95;;;12.10;99.90;;;;;;5028221;28;20045;-78
2022/03/28 12:07:56;;;;;;;7.72;6.18;;;12.50;99.90;;;;;;5028053;28;20045;-78
2022/03/28 12:10:26;;;;;;;9.35;6.50;;;12.80;99.90;;;;;;5029771;28;20044;-78
2022/03/28 12:12:53;;;;;;;8.35;6.85;;;12.70;99.90;;;;;;5028083;28;20165;-78
2022/03/28 12:15:30;;;;;;;10.70;7.50;;;12.80;99.90;;;;;;5029577;28;20391;-77
2022/03/28 12:17:58;;;;;;;9.18;6.35;;;12.90;99.90;;;;;;5029175;28;20098;-78
2022/03/28 12:20:30;;;;;;;9.07;6.88;;;12.80;99.90;;;;;;5029244;28;20103;-78
2022/03/28 12:22:56;;;;;;;8.83;6.60;;;13.10;99.90;;;;;;5028503;28;20120;-78
2022/03/28 12:25:30;;;;;;;8.90;7.10;;;13.10;99.90;;;;;;5029833;28;20045;-78
2022/03/28 12:27:59;;;;;;;10.35;7.35;;;13.30;99.90;;;;;;5028266;28;20491;-78
2022/03/28 12:30:31;;;;;;;11.25;7.80;;;13.50;99.90;;;;;;5020437;28;20033;-80
2022/03/28 12:32:57;;;;;;;9.90;7.37;;;13.50;99.90;;;;;;5019908;28;20057;-78
2022/03/28 12:35:23;;;;;;;9.60;6.97;;;13.80;99.90;;;;;;5019698;28;20053;-78
2022/03/28 12:38:04;;;;;;;9.95;7.35;;;13.90;99.90;;;;;;5021394;28;20037;-78
2022/03/28 12:40:31;;;;;;;9.63;7.30;;;14.10;99.90;;;;;;5019444;28;20584;-79
2022/03/28 12:43:01;;;;;;;12.90;7.72;;;14.10;99.90;;;;;;5022379;28;20072;-80
2022/03/28 12:45:27;;;;;;;10.48;7.68;;;14.30;99.90;;;;;;5022955;28;20041;-79
2022/03/28 12:47:58;;;;;;;9.55;7.55;;;14.10;99.90;;;;;;5021375;28;20045;-79
2022/03/28 12:50:26;;;;;;;10.05;7.57;;;14.40;99.90;;;;;;5015992;28;20040;-78
2022/03/28 12:53:09;;;;;;;9.50;7.45;;;14.70;99.90;;;;;;5019910;28;20124;-79